createdAt,value
2023-02-22T00:00:48.257Z,16.38
2023-02-22T00:03:15.745Z,16.48
2023-02-22T00:05:53.611Z,15.93
2023-02-22T00:08:22.933Z,16.58
2023-02-22T00:10:51.467Z,16.15
2023-02-22T00:13:22.841Z,16.15
2023-02-22T00:15:49.699Z,15.15
2023-02-22T00:18:18.853Z,16.55
2023-02-22T00:20:46.107Z,14.98
2023-02-22T00:23:22.195Z,15.75
2023-02-22T00:25:50.548Z,15.20
2023-02-22T00:28:19.038Z,15.77
2023-02-22T00:30:48.267Z,15.50
2023-02-22T00:33:16.465Z,16.58
2023-02-22T00:35:48.263Z,16.13
2023-02-22T00:38:18.048Z,15.23
2023-02-22T00:40:45.542Z,15.25
2023-02-22T00:43:12.908Z,15.85
2023-02-22T00:45:39.781Z,17.00
2023-02-22T00:48:07.698Z,15.82
2023-02-22T00:50:35.057Z,16.80
2023-02-22T00:53:03.889Z,16.55
2023-02-22T00:55:34.282Z,16.48
2023-02-22T00:58:02.237Z,17.48
2023-02-22T01:00:41.738Z,18.33
2023-02-22T01:03:11.070Z,16.90
2023-02-22T01:05:38.784Z,16.83
2023-02-22T01:08:07.829Z,17.33
2023-02-22T01:10:35.425Z,17.50
2023-02-22T01:13:08.843Z,17.17
2023-02-22T01:15:38.761Z,18.73
2023-02-22T01:18:06.122Z,17.02
2023-02-22T01:20:33.830Z,16.48
2023-02-22T01:23:03.724Z,17.58
2023-02-22T01:25:31.601Z,18.25
2023-02-22T01:28:01.119Z,17.60
2023-02-22T01:30:33.298Z,17.52
2023-02-22T01:33:01.374Z,18.25
2023-02-22T01:35:31.543Z,18.23
2023-02-22T01:37:59.038Z,19.40
2023-02-22T01:40:27.627Z,17.05
2023-02-22T01:42:57.944Z,17.08
2023-02-22T01:45:30.942Z,17.13
2023-02-22T01:48:19.882Z,15.90
2023-02-22T01:51:16.131Z,15.98
2023-02-22T01:53:54.726Z,16.08
2023-02-22T01:56:23.506Z,14.15
2023-02-22T01:58:55.956Z,15.23
2023-02-22T02:01:25.122Z,14.40
2023-02-22T02:04:00.469Z,15.30
2023-02-22T02:06:31.360Z,15.57
2023-02-22T02:09:10.914Z,15.43
2023-02-22T02:11:40.499Z,15.77
2023-02-22T02:14:09.328Z,15.13
2023-02-22T02:16:42.784Z,17.75
2023-02-22T02:19:36.251Z,18.10
2023-02-22T02:22:21.725Z,18.15
2023-02-22T02:25:05.167Z,19.42
2023-02-22T02:27:37.872Z,19.17
2023-02-22T02:30:58.248Z,19.88
2023-02-22T02:33:44.959Z,19.42
2023-02-22T02:36:52.361Z,20.20
2023-02-22T02:39:49.334Z,19.35
2023-02-22T02:42:22.285Z,19.48
2023-02-22T02:44:52.187Z,20.23
2023-02-22T02:47:27.190Z,20.27
2023-02-22T02:50:06.822Z,20.90
2023-02-22T02:52:35.594Z,20.85
2023-02-22T02:55:05.437Z,21.05
2023-02-22T02:57:32.478Z,21.23
2023-02-22T02:59:59.407Z,20.27
2023-02-22T03:02:35.950Z,21.58
2023-02-22T03:05:34.461Z,20.58
2023-02-22T03:08:15.807Z,21.00
2023-02-22T03:11:15.400Z,20.77
2023-02-22T03:13:58.351Z,20.15
2023-02-22T03:16:34.799Z,19.77
2023-02-22T03:19:40.444Z,20.23
2023-02-22T03:22:24.964Z,21.45
2023-02-22T03:24:59.086Z,21.38
2023-02-22T03:27:33.639Z,21.95
2023-02-22T03:30:08.580Z,23.73
2023-02-22T03:32:42.968Z,22.95
2023-02-22T03:35:14.980Z,21.90
2023-02-22T03:37:46.590Z,21.70
2023-02-22T03:40:26.018Z,21.75
2023-02-22T03:43:00.459Z,20.33
2023-02-22T03:45:30.029Z,21.27
2023-02-22T03:48:26.559Z,21.20
2023-02-22T03:50:53.847Z,21.23
2023-02-22T03:53:23.326Z,22.23
2023-02-22T03:55:52.212Z,21.35
2023-02-22T03:58:22.334Z,20.73
2023-02-22T04:00:53.310Z,21.05
2023-02-22T04:03:23.777Z,21.77
2023-02-22T04:05:51.203Z,22.60
2023-02-22T04:08:18.343Z,22.00
2023-02-22T04:10:45.485Z,23.15
2023-02-22T04:13:14.923Z,22.42
2023-02-22T04:15:42.023Z,21.27
2023-02-22T04:18:09.027Z,22.33
2023-02-22T04:20:35.844Z,21.77
2023-02-22T04:23:02.737Z,21.40
2023-02-22T04:25:29.547Z,20.42
2023-02-22T04:27:56.525Z,21.90
2023-02-22T04:30:23.483Z,20.90
2023-02-22T04:32:50.401Z,20.15
2023-02-22T04:35:17.357Z,20.42
2023-02-22T04:37:44.130Z,19.92
2023-02-22T04:40:11.581Z,18.95
2023-02-22T04:42:39.394Z,20.50
2023-02-22T04:45:08.112Z,19.30
2023-02-22T04:47:36.051Z,18.77
2023-02-22T04:50:04.405Z,19.15
2023-02-22T04:52:31.632Z,19.73
2023-02-22T04:54:58.803Z,19.73
2023-02-22T04:57:27.201Z,19.20
2023-02-22T04:59:54.192Z,19.33
2023-02-22T05:02:21.271Z,20.10
2023-02-22T05:04:48.873Z,19.00
2023-02-22T05:07:15.704Z,18.70
2023-02-22T05:09:42.640Z,19.70
2023-02-22T05:12:09.542Z,19.45
2023-02-22T05:14:36.345Z,19.83
2023-02-22T05:17:04.074Z,19.88
2023-02-22T05:19:31.013Z,20.58
2023-02-22T05:21:57.918Z,20.75
2023-02-22T05:24:24.916Z,22.75
2023-02-22T05:26:53.279Z,20.88
2023-02-22T05:29:21.180Z,21.42
2023-02-22T05:31:48.067Z,21.70
2023-02-22T05:34:16.225Z,22.38
2023-02-22T05:36:43.222Z,22.27
2023-02-22T05:39:10.042Z,21.55
2023-02-22T05:41:36.799Z,20.77
2023-02-22T05:44:03.683Z,20.08
2023-02-22T05:46:30.955Z,20.50
2023-02-22T05:48:57.949Z,21.83
2023-02-22T05:51:25.039Z,18.90
2023-02-22T05:53:52.595Z,19.25
2023-02-22T05:56:28.022Z,19.52
2023-02-22T05:58:55.098Z,19.83
2023-02-22T06:01:22.167Z,18.60
2023-02-22T06:03:50.559Z,18.75
2023-02-22T06:06:22.274Z,19.98
2023-02-22T06:08:49.731Z,20.08
2023-02-22T06:11:17.520Z,20.88
2023-02-22T06:13:53.108Z,25.23
2023-02-22T06:16:21.411Z,23.90
2023-02-22T06:18:48.913Z,20.27
2023-02-22T06:21:17.531Z,21.42
2023-02-22T06:23:44.734Z,20.35
2023-02-22T06:26:11.630Z,19.08
2023-02-22T06:28:38.425Z,20.50
2023-02-22T06:31:05.459Z,24.02
2023-02-22T06:33:32.428Z,21.60
2023-02-22T06:35:59.418Z,20.50
2023-02-22T06:38:27.948Z,19.13
2023-02-22T06:40:57.996Z,19.15
2023-02-22T06:43:25.773Z,18.60
2023-02-22T06:45:53.179Z,19.08
2023-02-22T06:48:20.536Z,18.55
2023-02-22T06:50:47.569Z,18.95
2023-02-22T06:53:14.675Z,18.38
2023-02-22T06:55:41.587Z,18.77
2023-02-22T06:58:08.420Z,18.77
2023-02-22T07:00:35.515Z,17.63
2023-02-22T07:03:04.766Z,16.98
2023-02-22T07:05:31.675Z,17.00
2023-02-22T07:08:05.285Z,17.27
2023-02-22T07:10:33.805Z,17.85
2023-02-22T07:13:01.711Z,18.38
2023-02-22T07:15:31.464Z,17.73
2023-02-22T07:17:58.941Z,17.85
2023-02-22T07:20:28.308Z,17.25
2023-02-22T07:22:55.487Z,17.95
2023-02-22T07:25:24.464Z,17.83
2023-02-22T07:27:52.546Z,18.38
2023-02-22T07:30:26.089Z,19.58
2023-02-22T07:32:54.672Z,19.63
2023-02-22T07:35:25.815Z,18.42
2023-02-22T07:37:55.731Z,18.60
2023-02-22T07:40:24.216Z,18.08
2023-02-22T07:43:02.032Z,18.77
2023-02-22T07:45:31.278Z,18.40
2023-02-22T07:47:58.730Z,17.80
2023-02-22T07:50:27.207Z,18.15
2023-02-22T07:52:57.051Z,17.77
2023-02-22T07:55:27.248Z,23.35
2023-02-22T07:57:57.364Z,20.20
2023-02-22T08:00:30.116Z,21.33
2023-02-22T08:02:58.051Z,19.85
2023-02-22T08:05:27.530Z,21.80
2023-02-22T08:07:54.801Z,30.02
2023-02-22T08:10:23.437Z,31.73
2023-02-22T08:12:50.849Z,26.25
2023-02-22T08:15:25.159Z,22.63
2023-02-22T08:17:53.482Z,19.48
2023-02-22T08:20:21.449Z,17.77
2023-02-22T08:22:48.758Z,17.38
2023-02-22T08:25:17.606Z,23.67
2023-02-22T08:27:45.019Z,18.23
2023-02-22T08:30:16.206Z,18.95
2023-02-22T08:32:43.362Z,19.40
2023-02-22T08:35:10.492Z,19.95
2023-02-22T08:37:37.562Z,20.60
2023-02-22T08:40:04.877Z,20.17
2023-02-22T08:42:31.912Z,19.60
2023-02-22T08:45:08.456Z,19.50
2023-02-22T08:47:35.718Z,21.35
2023-02-22T08:50:02.678Z,19.98
2023-02-22T08:52:29.484Z,18.90
2023-02-22T08:54:56.443Z,19.30
2023-02-22T08:57:23.328Z,18.88
2023-02-22T08:59:50.134Z,19.00
2023-02-22T09:02:19.328Z,18.67
2023-02-22T09:04:47.978Z,16.33
2023-02-22T09:07:15.992Z,16.83
2023-02-22T09:09:44.471Z,18.00
2023-02-22T09:12:11.344Z,19.30
2023-02-22T09:14:38.308Z,17.73
2023-02-22T09:17:05.940Z,17.30
2023-02-22T09:19:33.053Z,17.27
2023-02-22T09:22:00.566Z,17.70
2023-02-22T09:24:27.549Z,19.58
2023-02-22T09:26:54.866Z,19.55
2023-02-22T09:29:23.873Z,20.52
2023-02-22T09:31:52.372Z,20.75
2023-02-22T09:34:22.692Z,20.52
2023-02-22T09:36:50.436Z,20.33
2023-02-22T09:39:18.540Z,20.73
2023-02-22T09:42:24.090Z,19.90
2023-02-22T09:44:55.844Z,19.83
2023-02-22T09:47:32.588Z,19.48
2023-02-22T09:50:15.592Z,19.40
2023-02-22T09:53:01.219Z,22.80
2023-02-22T09:55:39.488Z,20.98
2023-02-22T09:58:34.102Z,21.35
2023-02-22T10:01:44.953Z,22.92
2023-02-22T10:04:20.057Z,23.38
2023-02-22T10:07:12.640Z,23.70
2023-02-22T10:09:43.424Z,22.77
2023-02-22T10:12:33.209Z,23.40
2023-02-22T10:15:16.098Z,24.35
2023-02-22T10:18:19.511Z,24.92
2023-02-22T10:20:46.512Z,24.05
2023-02-22T10:23:28.612Z,23.63
2023-02-22T10:26:20.262Z,26.10
2023-02-22T10:28:55.356Z,24.42
2023-02-22T10:31:28.762Z,25.23
2023-02-22T10:34:13.968Z,25.33
2023-02-22T10:36:46.094Z,25.30
2023-02-22T10:39:33.857Z,25.88
2023-02-22T10:42:09.243Z,26.02
2023-02-22T10:44:37.634Z,29.17
2023-02-22T10:47:10.208Z,28.73
2023-02-22T10:49:46.208Z,30.67
2023-02-22T10:52:26.076Z,31.83
2023-02-22T10:55:06.090Z,32.03
2023-02-22T10:57:42.473Z,33.10
2023-02-22T11:00:29.518Z,32.38
2023-02-22T11:03:02.690Z,35.13
2023-02-22T11:05:39.091Z,35.17
2023-02-22T11:08:21.276Z,33.15
2023-02-22T11:10:53.820Z,34.17
2023-02-22T11:13:35.982Z,37.72
2023-02-22T11:16:20.635Z,37.67
2023-02-22T11:18:50.505Z,39.45
2023-02-22T11:21:23.224Z,40.25
2023-02-22T11:23:50.531Z,40.90
2023-02-22T11:26:20.690Z,42.75
2023-02-22T11:28:56.263Z,41.38
2023-02-22T11:31:29.128Z,42.22
2023-02-22T11:34:01.345Z,43.72
2023-02-22T11:36:33.225Z,41.90
2023-02-22T11:39:01.088Z,44.25
2023-02-22T11:41:30.906Z,44.22
2023-02-22T11:44:26.736Z,46.13
2023-02-22T11:47:01.500Z,43.22
2023-02-22T11:49:42.737Z,45.08
2023-02-22T11:52:31.026Z,45.40
2023-02-22T11:55:43.638Z,46.60
2023-02-22T11:58:23.691Z,46.17
2023-02-22T12:01:07.974Z,47.53
2023-02-22T12:03:54.187Z,48.65
2023-02-22T12:06:41.629Z,47.67
2023-02-22T12:09:15.121Z,45.97
2023-02-22T12:12:06.199Z,48.17
2023-02-22T12:14:44.705Z,48.03
2023-02-22T12:17:35.014Z,47.70
2023-02-22T12:20:10.322Z,49.50
2023-02-22T12:22:46.038Z,48.38
2023-02-22T12:25:24.020Z,49.30
2023-02-22T12:27:55.859Z,48.55
2023-02-22T12:30:31.810Z,50.67
2023-02-22T12:33:11.964Z,49.30
2023-02-22T12:35:43.245Z,49.60
2023-02-22T12:38:23.695Z,49.67
2023-02-22T12:41:00.762Z,50.85
2023-02-22T12:43:34.187Z,51.60
2023-02-22T12:46:12.017Z,50.22
2023-02-22T12:48:59.349Z,50.97
2023-02-22T12:51:44.413Z,50.47
2023-02-22T12:54:21.589Z,50.00
2023-02-22T12:57:01.217Z,49.75
2023-02-22T12:59:45.972Z,49.85
2023-02-22T13:02:18.124Z,51.92
2023-02-22T13:04:45.047Z,50.03
2023-02-22T13:07:17.468Z,53.30
2023-02-22T13:10:08.258Z,50.45
2023-02-22T13:13:03.855Z,49.72
2023-02-22T13:15:37.334Z,50.33
2023-02-22T13:18:33.126Z,50.58
2023-02-22T13:21:07.037Z,49.67
2023-02-22T13:24:05.940Z,50.88
2023-02-22T13:26:47.546Z,50.22
2023-02-22T13:29:28.471Z,51.65
2023-02-22T13:31:58.451Z,49.20
2023-02-22T13:34:31.154Z,48.28
2023-02-22T13:37:17.774Z,46.83
2023-02-22T13:40:00.861Z,48.35
2023-02-22T13:42:37.554Z,56.05
2023-02-22T13:45:16.369Z,51.47
2023-02-22T13:47:56.192Z,56.42
2023-02-22T13:51:00.762Z,47.97
2023-02-22T13:53:33.071Z,44.92
2023-02-22T13:56:01.503Z,43.15
2023-02-22T13:58:28.455Z,44.55
2023-02-22T14:00:57.579Z,42.17
2023-02-22T14:03:41.394Z,41.40
2023-02-22T14:06:11.446Z,39.22
2023-02-22T14:08:41.953Z,38.63
2023-02-22T14:11:14.878Z,39.47
2023-02-22T14:13:55.689Z,36.83
2023-02-22T14:16:27.576Z,34.97
2023-02-22T14:19:06.425Z,35.42
2023-02-22T14:21:35.253Z,37.60
2023-02-22T14:24:14.246Z,33.45
2023-02-22T14:26:53.576Z,34.10
2023-02-22T14:29:21.697Z,34.30
2023-02-22T14:31:50.812Z,34.10
2023-02-22T14:34:40.567Z,35.28
2023-02-22T14:37:36.552Z,33.90
2023-02-22T14:40:21.707Z,31.67
2023-02-22T14:42:51.121Z,30.85
2023-02-22T14:45:29.732Z,32.03
2023-02-22T14:48:25.079Z,31.67
2023-02-22T14:51:05.902Z,29.38
2023-02-22T14:53:49.312Z,30.52
2023-02-22T14:56:25.894Z,31.30
2023-02-22T14:59:12.390Z,31.38
2023-02-22T15:01:49.337Z,29.80
2023-02-22T15:04:30.992Z,29.55
2023-02-22T15:07:00.322Z,30.58
2023-02-22T15:09:32.960Z,30.45
2023-02-22T15:12:04.677Z,28.80
2023-02-22T15:14:37.907Z,30.45
2023-02-22T15:17:10.619Z,29.58
2023-02-22T15:19:40.280Z,31.33
2023-02-22T15:22:22.968Z,29.52
2023-02-22T15:25:01.892Z,32.22
2023-02-22T15:27:29.340Z,32.42
2023-02-22T15:30:04.974Z,31.88
2023-02-22T15:32:53.468Z,32.85
2023-02-22T15:35:35.517Z,33.38
2023-02-22T15:38:11.683Z,33.35
2023-02-22T15:40:43.246Z,35.92
2023-02-22T15:43:28.584Z,35.83
2023-02-22T15:45:57.427Z,33.47
2023-02-22T15:48:26.501Z,31.80
2023-02-22T15:51:09.353Z,32.53
2023-02-22T15:53:51.157Z,31.45
2023-02-22T15:56:30.301Z,31.13
2023-02-22T15:59:15.557Z,32.20
2023-02-22T16:01:46.094Z,33.75
2023-02-22T16:04:20.114Z,33.80
2023-02-22T16:06:48.700Z,33.35
2023-02-22T16:09:22.984Z,39.65
2023-02-22T16:11:50.082Z,37.38
2023-02-22T16:14:39.631Z,34.17
2023-02-22T16:17:35.767Z,34.83
2023-02-22T16:20:22.675Z,34.53
2023-02-22T16:22:50.377Z,34.17
2023-02-22T16:25:21.660Z,34.13
2023-02-22T16:27:50.565Z,33.20
2023-02-22T16:30:34.739Z,33.25
2023-02-22T16:33:05.821Z,33.60
2023-02-22T16:35:35.643Z,36.33
2023-02-22T16:38:05.279Z,36.55
2023-02-22T16:40:39.542Z,35.28
2023-02-22T16:43:14.743Z,35.08
2023-02-22T16:45:42.678Z,33.67
2023-02-22T16:48:18.312Z,35.35
2023-02-22T16:50:46.109Z,34.85
2023-02-22T16:53:13.573Z,36.13
2023-02-22T16:55:44.912Z,40.85
2023-02-22T16:58:13.834Z,38.17
2023-02-22T17:00:42.410Z,37.03
2023-02-22T17:03:18.495Z,35.92
2023-02-22T17:05:46.001Z,34.67
2023-02-22T17:08:13.701Z,34.55
2023-02-22T17:10:40.738Z,35.45
2023-02-22T17:13:21.807Z,35.40
2023-02-22T17:15:50.262Z,36.03
2023-02-22T17:18:23.025Z,36.63
2023-02-22T17:20:51.311Z,36.63
2023-02-22T17:23:19.173Z,49.15
2023-02-22T17:25:51.288Z,40.15
2023-02-22T17:28:18.174Z,46.95
2023-02-22T17:30:47.983Z,44.03
2023-02-22T17:33:18.477Z,42.45
2023-02-22T17:35:47.066Z,44.60
2023-02-22T17:38:18.662Z,41.25
2023-02-22T17:40:54.805Z,40.47
2023-02-22T17:43:23.263Z,40.58
2023-02-22T17:45:50.377Z,37.47
2023-02-22T17:48:18.489Z,39.20
2023-02-22T17:50:47.917Z,37.40
2023-02-22T17:53:15.488Z,38.35
2023-02-22T17:55:42.987Z,38.17
2023-02-22T17:58:17.358Z,40.30
2023-02-22T18:00:47.532Z,39.42
2023-02-22T18:03:25.925Z,36.42
2023-02-22T18:05:58.857Z,36.45
2023-02-22T18:08:27.936Z,37.15
2023-02-22T18:10:58.163Z,38.10
2023-02-22T18:13:27.063Z,36.10
2023-02-22T18:16:00.422Z,35.15
2023-02-22T18:18:27.771Z,37.10
2023-02-22T18:20:59.553Z,36.78
2023-02-22T18:23:28.980Z,35.15
2023-02-22T18:26:09.742Z,35.80
2023-02-22T18:28:38.111Z,34.92
2023-02-22T18:31:10.293Z,36.80
2023-02-22T18:33:37.340Z,34.97
2023-02-22T18:36:04.765Z,34.95
2023-02-22T18:38:32.417Z,34.33
2023-02-22T18:41:03.923Z,36.08
2023-02-22T18:43:37.146Z,34.90
2023-02-22T18:46:21.616Z,34.38
2023-02-22T18:48:52.030Z,33.92
2023-02-22T18:51:19.059Z,34.72
2023-02-22T18:53:47.728Z,34.58
2023-02-22T18:56:17.851Z,34.70
2023-02-22T18:58:45.766Z,35.40
2023-02-22T19:01:18.850Z,38.35
2023-02-22T19:03:49.647Z,35.40
2023-02-22T19:06:17.274Z,34.50
2023-02-22T19:08:45.906Z,34.20
2023-02-22T19:11:19.359Z,35.63
2023-02-22T19:13:48.695Z,37.97
2023-02-22T19:16:19.734Z,35.60
2023-02-22T19:18:48.914Z,37.00
2023-02-22T19:21:16.477Z,36.63
2023-02-22T19:23:46.521Z,37.15
2023-02-22T19:26:18.565Z,40.08
2023-02-22T19:28:47.705Z,38.58
2023-02-22T19:31:26.541Z,45.95
2023-02-22T19:33:54.403Z,46.28
2023-02-22T19:36:25.779Z,47.22
2023-02-22T19:38:52.845Z,45.03
2023-02-22T19:41:22.604Z,46.38
2023-02-22T19:43:52.182Z,49.30
2023-02-22T19:46:21.509Z,54.78
2023-02-22T19:48:49.227Z,45.17
2023-02-22T19:51:18.245Z,43.80
2023-02-22T19:53:46.186Z,39.75
2023-02-22T19:56:16.919Z,38.20
2023-02-22T19:58:46.071Z,37.25
2023-02-22T20:01:22.891Z,39.33
2023-02-22T20:04:11.957Z,41.50
2023-02-22T20:06:41.120Z,38.40
2023-02-22T20:09:13.908Z,38.40
2023-02-22T20:11:40.933Z,40.88
2023-02-22T20:14:08.142Z,39.50
2023-02-22T20:16:35.432Z,40.33
2023-02-22T20:19:02.525Z,38.65
2023-02-22T20:21:33.806Z,38.22
2023-02-22T20:24:07.717Z,37.08
2023-02-22T20:26:36.717Z,37.20
2023-02-22T20:29:05.608Z,38.95
2023-02-22T20:31:33.444Z,36.60
2023-02-22T20:34:01.225Z,35.42
2023-02-22T20:36:30.162Z,36.30
2023-02-22T20:38:59.071Z,36.85
2023-02-22T20:41:34.959Z,38.67
2023-02-22T20:44:03.591Z,37.95
2023-02-22T20:46:31.753Z,37.95
2023-02-22T20:49:00.944Z,38.38
2023-02-22T20:51:28.760Z,38.13
2023-02-22T20:53:59.881Z,37.92
2023-02-22T20:56:28.771Z,37.20
2023-02-22T20:59:01.278Z,36.05
2023-02-22T21:01:29.199Z,36.88
2023-02-22T21:04:05.088Z,33.95
2023-02-22T21:06:34.142Z,35.08
2023-02-22T21:09:02.743Z,34.20
2023-02-22T21:11:32.085Z,32.20
2023-02-22T21:14:00.483Z,32.63
2023-02-22T21:16:30.065Z,31.63
2023-02-22T21:18:59.642Z,31.33
2023-02-22T21:21:28.067Z,31.95
2023-02-22T21:23:57.768Z,30.40
2023-02-22T21:26:29.646Z,31.75
2023-02-22T21:29:01.475Z,31.65
2023-02-22T21:31:29.275Z,31.35
2023-02-22T21:33:58.389Z,30.52
2023-02-22T21:36:26.232Z,32.75
2023-02-22T21:38:58.823Z,32.35
2023-02-22T21:41:28.960Z,31.92
2023-02-22T21:43:57.594Z,33.47
2023-02-22T21:46:35.159Z,33.10
2023-02-22T21:49:02.194Z,30.67
2023-02-22T21:51:31.626Z,32.83
2023-02-22T21:54:03.579Z,31.33
2023-02-22T21:56:34.747Z,31.25
2023-02-22T21:59:07.246Z,32.35
2023-02-22T22:01:37.171Z,33.45
2023-02-22T22:04:05.634Z,33.72
2023-02-22T22:06:34.681Z,32.83
2023-02-22T22:09:05.295Z,33.55
2023-02-22T22:11:32.240Z,32.92
2023-02-22T22:13:59.789Z,33.45
2023-02-22T22:16:29.990Z,33.60
2023-02-22T22:18:57.279Z,32.92
2023-02-22T22:21:25.024Z,33.55
2023-02-22T22:23:56.332Z,32.85
2023-02-22T22:26:25.007Z,31.40
2023-02-22T22:28:58.511Z,32.05
2023-02-22T22:31:26.721Z,33.05
2023-02-22T22:33:56.206Z,32.03
2023-02-22T22:36:24.640Z,30.45
2023-02-22T22:38:52.816Z,29.67
2023-02-22T22:41:21.713Z,32.42
2023-02-22T22:43:48.836Z,33.17
2023-02-22T22:46:18.070Z,31.77
2023-02-22T22:48:47.139Z,31.63
2023-02-22T22:51:22.106Z,32.30
2023-02-22T22:53:50.895Z,30.58
2023-02-22T22:56:21.269Z,31.77
2023-02-22T22:58:51.542Z,32.63
2023-02-22T23:01:27.191Z,31.83
2023-02-22T23:03:59.843Z,32.70
2023-02-22T23:06:32.945Z,32.83
2023-02-22T23:09:01.668Z,32.42
2023-02-22T23:11:30.410Z,33.30
2023-02-22T23:13:57.283Z,34.08
2023-02-22T23:16:24.770Z,33.47
2023-02-22T23:18:52.069Z,34.38
2023-02-22T23:21:24.287Z,33.50
2023-02-22T23:23:56.030Z,35.40
2023-02-22T23:26:26.649Z,33.53
2023-02-22T23:28:56.745Z,33.70
2023-02-22T23:31:24.420Z,36.47
2023-02-22T23:33:51.911Z,35.47
2023-02-22T23:36:19.572Z,36.67
2023-02-22T23:38:46.584Z,35.75
2023-02-22T23:41:18.604Z,35.65
2023-02-22T23:43:46.393Z,37.42
2023-02-22T23:46:18.563Z,37.05
2023-02-22T23:48:51.723Z,37.30
2023-02-22T23:51:25.882Z,39.50
2023-02-22T23:53:55.884Z,38.95
2023-02-22T23:56:27.931Z,39.70
2023-02-22T23:58:57.565Z,40.10
